sensor_id;sensor_type;location;lat;lon;timestamp;pressure;altitude;pressure_sealevel;temperature;humidity
33404;BME280;19751;40.274;18.268;2022-11-20T00:02:24;100388.91;;;19.95;100.00
33404;BME280;19751;40.274;18.268;2022-11-20T00:04:49;100369.75;;;19.95;100.00
33404;BME280;19751;40.274;18.268;2022-11-20T00:07:15;100376.59;;;19.92;100.00
33404;BME280;19751;40.274;18.268;2022-11-20T00:09:40;100365.66;;;19.92;100.00
33404;BME280;19751;40.274;18.268;2022-11-20T00:12:06;100366.47;;;19.93;100.00
33404;BME280;19751;40.274;18.268;2022-11-20T00:14:32;100364.56;;;19.93;100.00
33404;BME280;19751;40.274;18.268;2022-11-20T00:16:57;100373.59;;;19.94;100.00
33404;BME280;19751;40.274;18.268;2022-11-20T00:19:23;100376.88;;;19.91;100.00
33404;BME280;19751;40.274;18.268;2022-11-20T00:21:49;100368.66;;;19.91;100.00
33404;BME280;19751;40.274;18.268;2022-11-20T00:24:16;100368.91;;;19.89;100.00
33404;BME280;19751;40.274;18.268;2022-11-20T00:26:42;100369.72;;;19.90;100.00
33404;BME280;19751;40.274;18.268;2022-11-20T00:29:08;100364.25;;;19.90;100.00
33404;BME280;19751;40.274;18.268;2022-11-20T00:31:35;100354.94;;;19.85;100.00
33404;BME280;19751;40.274;18.268;2022-11-20T00:34:02;100347.56;;;19.86;100.00
33404;BME280;19751;40.274;18.268;2022-11-20T00:36:31;100362.88;;;19.87;100.00
33404;BME280;19751;40.274;18.268;2022-11-20T00:38:58;100370.00;;;19.88;100.00
33404;BME280;19751;40.274;18.268;2022-11-20T00:41:25;100368.91;;;19.89;100.00
33404;BME280;19751;40.274;18.268;2022-11-20T00:43:52;100375.19;;;19.90;100.00
33404;BME280;19751;40.274;18.268;2022-11-20T00:46:21;100372.47;;;19.90;100.00
33404;BME280;19751;40.274;18.268;2022-11-20T00:48:47;100377.09;;;19.89;100.00
33404;BME280;19751;40.274;18.268;2022-11-20T00:51:15;100372.47;;;19.90;100.00
33404;BME280;19751;40.274;18.268;2022-11-20T00:53:41;100368.66;;;19.91;100.00
33404;BME280;19751;40.274;18.268;2022-11-20T00:56:10;100373.28;;;19.90;100.00
33404;BME280;19751;40.274;18.268;2022-11-20T00:58:38;100366.16;;;19.89;100.00
33404;BME280;19751;40.274;18.268;2022-11-20T01:01:04;100381.75;;;19.89;100.00
33404;BME280;19751;40.274;18.268;2022-11-20T01:03:35;100380.09;;;19.88;100.00
33404;BME280;19751;40.274;18.268;2022-11-20T01:06:02;100378.47;;;19.86;100.00
33404;BME280;19751;40.274;18.268;2022-11-20T01:08:33;100373.81;;;19.87;100.00
33404;BME280;19751;40.274;18.268;2022-11-20T01:11:03;100396.00;;;19.91;100.00
33404;BME280;19751;40.274;18.268;2022-11-20T01:13:30;100405.25;;;19.90;100.00
33404;BME280;19751;40.274;18.268;2022-11-20T01:16:11;100394.31;;;19.90;100.00
33404;BME280;19751;40.274;18.268;2022-11-20T01:18:38;100378.09;;;19.78;100.00
33404;BME280;19751;40.274;18.268;2022-11-20T01:21:09;100371.34;;;19.58;100.00
33404;BME280;19751;40.274;18.268;2022-11-20T01:23:39;100371.16;;;19.43;100.00
33404;BME280;19751;40.274;18.268;2022-11-20T01:26:11;100353.09;;;19.37;100.00
33404;BME280;19751;40.274;18.268;2022-11-20T01:28:37;100311.28;;;19.36;100.00
33404;BME280;19751;40.274;18.268;2022-11-20T01:31:17;100311.81;;;19.33;100.00
33404;BME280;19751;40.274;18.268;2022-11-20T01:33:44;100284.16;;;19.25;100.00
33404;BME280;19751;40.274;18.268;2022-11-20T01:36:12;100273.69;;;19.17;100.00
33404;BME280;19751;40.274;18.268;2022-11-20T01:38:38;100269.84;;;19.12;100.00
33404;BME280;19751;40.274;18.268;2022-11-20T01:41:04;100263.56;;;19.12;100.00
33404;BME280;19751;40.274;18.268;2022-11-20T01:43:30;100232.44;;;19.13;96.51
33404;BME280;19751;40.274;18.268;2022-11-20T01:46:00;100234.13;;;19.19;93.99
33404;BME280;19751;40.274;18.268;2022-11-20T01:48:39;100242.09;;;19.26;96.06
33404;BME280;19751;40.274;18.268;2022-11-20T01:53:58;100209.03;;;19.22;100.00
33404;BME280;19751;40.274;18.268;2022-11-20T01:56:26;100217.81;;;19.24;98.78
33404;BME280;19751;40.274;18.268;2022-11-20T01:58:56;100216.16;;;19.28;97.99
33404;BME280;19751;40.274;18.268;2022-11-20T02:01:23;100205.84;;;19.30;98.77
33404;BME280;19751;40.274;18.268;2022-11-20T02:03:50;100196.53;;;19.31;100.00
33404;BME280;19751;40.274;18.268;2022-11-20T02:06:25;100176.09;;;19.34;100.00
33404;BME280;19751;40.274;18.268;2022-11-20T02:08:54;100164.94;;;19.41;100.00
33404;BME280;19751;40.274;18.268;2022-11-20T02:11:20;100179.72;;;19.45;100.00
33404;BME280;19751;40.274;18.268;2022-11-20T02:13:47;100186.31;;;19.49;100.00
33404;BME280;19751;40.274;18.268;2022-11-20T02:18:46;100172.13;;;19.52;100.00
33404;BME280;19751;40.274;18.268;2022-11-20T02:23:39;100171.59;;;19.55;100.00
33404;BME280;19751;40.274;18.268;2022-11-20T02:26:12;100171.88;;;19.53;100.00
33404;BME280;19751;40.274;18.268;2022-11-20T02:28:39;100184.19;;;19.56;100.00
33404;BME280;19751;40.274;18.268;2022-11-20T02:31:05;100179.81;;;19.55;100.00
33404;BME280;19751;40.274;18.268;2022-11-20T02:33:31;100190.44;;;19.51;100.00
33404;BME280;19751;40.274;18.268;2022-11-20T02:35:56;100190.13;;;19.48;100.00
33404;BME280;19751;40.274;18.268;2022-11-20T02:38:22;100162.50;;;19.44;100.00
33404;BME280;19751;40.274;18.268;2022-11-20T02:40:48;100158.41;;;19.42;100.00
33404;BME280;19751;40.274;18.268;2022-11-20T02:43:15;100167.66;;;19.41;100.00
33404;BME280;19751;40.274;18.268;2022-11-20T02:45:41;100183.00;;;19.42;100.00
33404;BME280;19751;40.274;18.268;2022-11-20T02:48:07;100174.78;;;19.42;100.00
33404;BME280;19751;40.274;18.268;2022-11-20T02:50:36;100189.81;;;19.44;100.00
33404;BME280;19751;40.274;18.268;2022-11-20T02:53:02;100214.41;;;19.44;100.00
33404;BME280;19751;40.274;18.268;2022-11-20T02:55:27;100218.81;;;19.45;100.00
33404;BME280;19751;40.274;18.268;2022-11-20T02:57:53;100218.22;;;19.43;100.00
33404;BME280;19751;40.274;18.268;2022-11-20T03:00:19;100218.50;;;19.42;100.00
33404;BME280;19751;40.274;18.268;2022-11-20T03:02:45;100243.88;;;19.42;100.00
33404;BME280;19751;40.274;18.268;2022-11-20T03:05:11;100249.34;;;19.42;100.00
33404;BME280;19751;40.274;18.268;2022-11-20T03:07:36;100214.66;;;19.43;100.00
33404;BME280;19751;40.274;18.268;2022-11-20T03:10:03;100220.09;;;19.37;100.00
33404;BME280;19751;40.274;18.268;2022-11-20T03:12:30;100234.19;;;19.24;100.00
33404;BME280;19751;40.274;18.268;2022-11-20T03:14:55;100240.84;;;19.11;100.00
33404;BME280;19751;40.274;18.268;2022-11-20T03:17:21;100268.72;;;18.86;100.00
33404;BME280;19751;40.274;18.268;2022-11-20T03:19:47;100255.41;;;18.46;100.00
33404;BME280;19751;40.274;18.268;2022-11-20T03:22:13;100233.69;;;18.12;100.00
33404;BME280;19751;40.274;18.268;2022-11-20T03:24:39;100272.25;;;18.04;100.00
33404;BME280;19751;40.274;18.268;2022-11-20T03:27:04;100233.03;;;18.05;100.00
33404;BME280;19751;40.274;18.268;2022-11-20T03:29:30;100242.28;;;18.04;100.00
33404;BME280;19751;40.274;18.268;2022-11-20T03:31:56;100298.59;;;17.82;100.00
33404;BME280;19751;40.274;18.268;2022-11-20T03:34:21;100324.72;;;17.49;100.00
33404;BME280;19751;40.274;18.268;2022-11-20T03:36:48;100302.03;;;17.15;100.00
33404;BME280;19751;40.274;18.268;2022-11-20T03:39:13;100284.25;;;16.96;100.00
33404;BME280;19751;40.274;18.268;2022-11-20T03:41:40;100283.59;;;16.88;100.00
33404;BME280;19751;40.274;18.268;2022-11-20T03:44:13;100266.09;;;16.84;100.00
33404;BME280;19751;40.274;18.268;2022-11-20T03:46:39;100253.88;;;16.87;100.00
33404;BME280;19751;40.274;18.268;2022-11-20T03:49:05;100238.16;;;16.89;100.00
33404;BME280;19751;40.274;18.268;2022-11-20T03:51:34;100200.44;;;16.93;100.00
33404;BME280;19751;40.274;18.268;2022-11-20T03:54:02;100199.34;;;16.94;100.00
33404;BME280;19751;40.274;18.268;2022-11-20T03:56:30;100179.72;;;16.92;100.00
33404;BME280;19751;40.274;18.268;2022-11-20T03:58:57;100187.78;;;16.86;100.00
33404;BME280;19751;40.274;18.268;2022-11-20T04:01:41;100167.91;;;16.86;100.00
33404;BME280;19751;40.274;18.268;2022-11-20T04:04:06;100176.91;;;16.86;100.00
33404;BME280;19751;40.274;18.268;2022-11-20T04:06:37;100163.06;;;16.88;100.00
33404;BME280;19751;40.274;18.268;2022-11-20T04:09:03;100161.41;;;16.87;100.00
33404;BME280;19751;40.274;18.268;2022-11-20T04:11:32;100140.16;;;16.84;100.00
33404;BME280;19751;40.274;18.268;2022-11-20T04:14:01;100142.75;;;16.79;100.00
33404;BME280;19751;40.274;18.268;2022-11-20T04:16:30;100140.88;;;16.79;100.00
33404;BME280;19751;40.274;18.268;2022-11-20T04:18:58;100132.13;;;16.77;100.00
33404;BME280;19751;40.274;18.268;2022-11-20T04:21:24;100146.56;;;16.78;100.00
33404;BME280;19751;40.274;18.268;2022-11-20T04:23:51;100149.03;;;16.79;100.00
33404;BME280;19751;40.274;18.268;2022-11-20T04:26:18;100153.97;;;16.82;100.00
33404;BME280;19751;40.274;18.268;2022-11-20T04:28:43;100150.28;;;16.88;100.00
33404;BME280;19751;40.274;18.268;2022-11-20T04:31:15;100154.25;;;16.98;100.00
33404;BME280;19751;40.274;18.268;2022-11-20T04:33:41;100148.41;;;17.06;100.00
33404;BME280;19751;40.274;18.268;2022-11-20T04:36:11;100148.34;;;17.18;100.00
33404;BME280;19751;40.274;18.268;2022-11-20T04:38:37;100154.19;;;17.26;100.00
33404;BME280;19751;40.274;18.268;2022-11-20T04:41:04;100150.78;;;17.36;100.00
33404;BME280;19751;40.274;18.268;2022-11-20T04:43:31;100155.25;;;17.42;100.00
33404;BME280;19751;40.274;18.268;2022-11-20T04:45:59;100147.16;;;17.47;100.00
33404;BME280;19751;40.274;18.268;2022-11-20T04:48:26;100146.75;;;17.55;100.00
33404;BME280;19751;40.274;18.268;2022-11-20T04:50:52;100140.34;;;17.67;100.00
33404;BME280;19751;40.274;18.268;2022-11-20T04:53:18;100152.31;;;17.82;100.00
33404;BME280;19751;40.274;18.268;2022-11-20T04:55:46;100168.22;;;17.91;100.00
33404;BME280;19751;40.274;18.268;2022-11-20T04:58:12;100168.00;;;17.92;100.00
33404;BME280;19751;40.274;18.268;2022-11-20T05:00:38;100153.03;;;17.95;100.00
33404;BME280;19751;40.274;18.268;2022-11-20T05:03:03;100147.66;;;18.00;100.00
33404;BME280;19751;40.274;18.268;2022-11-20T05:05:31;100143.34;;;18.04;100.00
33404;BME280;19751;40.274;18.268;2022-11-20T05:07:57;100139.88;;;18.08;100.00
33404;BME280;19751;40.274;18.268;2022-11-20T05:10:24;100116.16;;;18.09;100.00
33404;BME280;19751;40.274;18.268;2022-11-20T05:12:49;100108.56;;;18.11;100.00
33404;BME280;19751;40.274;18.268;2022-11-20T05:15:15;100111.28;;;18.11;100.00
33404;BME280;19751;40.274;18.268;2022-11-20T05:17:40;100119.72;;;18.09;100.00
33404;BME280;19751;40.274;18.268;2022-11-20T05:20:07;100137.97;;;18.09;100.00
33404;BME280;19751;40.274;18.268;2022-11-20T05:22:33;100146.16;;;18.09;100.00
33404;BME280;19751;40.274;18.268;2022-11-20T05:24:58;100161.41;;;18.10;100.00
33404;BME280;19751;40.274;18.268;2022-11-20T05:27:24;100171.50;;;18.09;100.00
33404;BME280;19751;40.274;18.268;2022-11-20T05:29:49;100171.72;;;18.08;100.00
33404;BME280;19751;40.274;18.268;2022-11-20T05:32:15;100176.34;;;18.07;100.00
33404;BME280;19751;40.274;18.268;2022-11-20T05:34:40;100184.78;;;18.06;100.00
33404;BME280;19751;40.274;18.268;2022-11-20T05:37:06;100186.94;;;18.04;100.00
33404;BME280;19751;40.274;18.268;2022-11-20T05:39:32;100195.38;;;18.02;100.00
33404;BME280;19751;40.274;18.268;2022-11-20T05:41:58;100202.72;;;18.02;100.00
33404;BME280;19751;40.274;18.268;2022-11-20T05:44:43;100205.47;;;18.02;100.00
33404;BME280;19751;40.274;18.268;2022-11-20T05:47:08;100201.91;;;18.01;100.00
33404;BME280;19751;40.274;18.268;2022-11-20T05:49:34;100201.91;;;18.01;100.00
33404;BME280;19751;40.274;18.268;2022-11-20T05:51:59;100212.00;;;18.01;100.00
33404;BME280;19751;40.274;18.268;2022-11-20T05:54:25;100216.34;;;18.02;100.00
33404;BME280;19751;40.274;18.268;2022-11-20T05:56:50;100218.00;;;18.03;100.00
33404;BME280;19751;40.274;18.268;2022-11-20T05:59:16;100215.28;;;18.03;100.00
33404;BME280;19751;40.274;18.268;2022-11-20T06:01:42;100225.09;;;18.04;100.00
33404;BME280;19751;40.274;18.268;2022-11-20T06:04:09;100225.09;;;18.04;100.00
33404;BME280;19751;40.274;18.268;2022-11-20T06:06:35;100224.03;;;18.05;100.00
33404;BME280;19751;40.274;18.268;2022-11-20T06:09:00;100232.22;;;18.05;100.00
33404;BME280;19751;40.274;18.268;2022-11-20T06:11:26;100232.22;;;18.05;100.00
33404;BME280;19751;40.274;18.268;2022-11-20T06:13:52;100243.09;;;18.05;100.00
33404;BME280;19751;40.274;18.268;2022-11-20T06:16:18;100246.88;;;18.04;100.00
33404;BME280;19751;40.274;18.268;2022-11-20T06:18:45;100256.97;;;18.03;100.00
33404;BME280;19751;40.274;18.268;2022-11-20T06:21:19;100262.69;;;18.02;100.00
33404;BME280;19751;40.274;18.268;2022-11-20T06:23:47;100259.13;;;18.01;100.00
33404;BME280;19751;40.274;18.268;2022-11-20T06:26:16;100257.50;;;18.00;100.00
33404;BME280;19751;40.274;18.268;2022-11-20T06:28:43;100273.00;;;18.00;100.00
33404;BME280;19751;40.274;18.268;2022-11-20T06:31:11;100281.16;;;18.00;100.00
33404;BME280;19751;40.274;18.268;2022-11-20T06:33:37;100274.06;;;17.99;100.00
33404;BME280;19751;40.274;18.268;2022-11-20T06:36:03;100263.16;;;17.99;100.00
33404;BME280;19751;40.274;18.268;2022-11-20T06:38:29;100257.72;;;17.99;100.00
33404;BME280;19751;40.274;18.268;2022-11-20T06:40:55;100270.84;;;18.02;100.00
33404;BME280;19751;40.274;18.268;2022-11-20T06:43:22;100267.63;;;18.05;100.00
33404;BME280;19751;40.274;18.268;2022-11-20T06:45:56;100268.19;;;18.07;100.00
33404;BME280;19751;40.274;18.268;2022-11-20T06:48:23;100277.53;;;18.11;100.00
33404;BME280;19751;40.274;18.268;2022-11-20T06:50:50;100282.22;;;18.16;100.00
33404;BME280;19751;40.274;18.268;2022-11-20T06:53:15;100287.44;;;18.17;100.00
33404;BME280;19751;40.274;18.268;2022-11-20T06:55:45;100293.44;;;18.19;100.00
33404;BME280;19751;40.274;18.268;2022-11-20T06:58:12;100288.81;;;18.20;100.00
33404;BME280;19751;40.274;18.268;2022-11-20T07:00:39;100292.13;;;18.22;100.00
33404;BME280;19751;40.274;18.268;2022-11-20T07:03:06;100289.16;;;18.23;100.00
33404;BME280;19751;40.274;18.268;2022-11-20T07:05:33;100295.41;;;18.24;100.00
33404;BME280;19751;40.274;18.268;2022-11-20T07:08:03;100289.41;;;18.22;100.00
33404;BME280;19751;40.274;18.268;2022-11-20T07:10:28;100298.41;;;18.22;100.00
33404;BME280;19751;40.274;18.268;2022-11-20T07:12:54;100290.22;;;18.22;100.00
33404;BME280;19751;40.274;18.268;2022-11-20T07:15:21;100300.06;;;18.23;100.00
33404;BME280;19751;40.274;18.268;2022-11-20T07:17:47;100305.78;;;18.22;100.00
33404;BME280;19751;40.274;18.268;2022-11-20T07:20:13;100303.88;;;18.22;100.00
33404;BME280;19751;40.274;18.268;2022-11-20T07:22:39;100307.16;;;18.24;100.00
33404;BME280;19751;40.274;18.268;2022-11-20T07:25:06;100305.28;;;18.25;100.00
33404;BME280;19751;40.274;18.268;2022-11-20T07:27:31;100298.75;;;18.26;100.00
33404;BME280;19751;40.274;18.268;2022-11-20T07:29:57;100295.53;;;18.29;100.00
33404;BME280;19751;40.274;18.268;2022-11-20T07:32:23;100294.44;;;18.30;100.00
33404;BME280;19751;40.274;18.268;2022-11-20T07:34:49;100295.25;;;18.30;100.00
33404;BME280;19751;40.274;18.268;2022-11-20T07:37:15;100285.72;;;18.33;100.00
33404;BME280;19751;40.274;18.268;2022-11-20T07:39:41;100274.59;;;18.34;100.00
33404;BME280;19751;40.274;18.268;2022-11-20T07:42:07;100269.97;;;18.35;100.00
33404;BME280;19751;40.274;18.268;2022-11-20T07:44:34;100280.38;;;18.38;100.00
33404;BME280;19751;40.274;18.268;2022-11-20T07:46:59;100263.75;;;18.39;100.00
33404;BME280;19751;40.274;18.268;2022-11-20T07:49:25;100259.69;;;18.42;100.00
33404;BME280;19751;40.274;18.268;2022-11-20T07:51:52;100267.63;;;18.44;100.00
33404;BME280;19751;40.274;18.268;2022-11-20T07:54:21;100264.38;;;18.47;100.00
33404;BME280;19751;40.274;18.268;2022-11-20T07:56:48;100268.75;;;18.48;100.00
33404;BME280;19751;40.274;18.268;2022-11-20T07:59:14;100269.09;;;18.51;100.00
33404;BME280;19751;40.274;18.268;2022-11-20T08:01:40;100270.72;;;18.52;100.00
33404;BME280;19751;40.274;18.268;2022-11-20T08:04:06;100270.72;;;18.52;100.00
33404;BME280;19751;40.274;18.268;2022-11-20T08:06:32;100286.31;;;18.57;100.00
33404;BME280;19751;40.274;18.268;2022-11-20T08:08:58;100284.19;;;18.59;100.00
33404;BME280;19751;40.274;18.268;2022-11-20T08:11:24;100283.91;;;18.60;100.00
33404;BME280;19751;40.274;18.268;2022-11-20T08:14:08;100273.84;;;18.61;100.00
33404;BME280;19751;40.274;18.268;2022-11-20T08:16:47;100264.56;;;18.62;100.00
33404;BME280;19751;40.274;18.268;2022-11-20T08:19:15;100256.38;;;18.62;100.00
33404;BME280;19751;40.274;18.268;2022-11-20T08:21:41;100264.56;;;18.62;100.00
33404;BME280;19751;40.274;18.268;2022-11-20T08:24:08;100264.56;;;18.62;100.00
33404;BME280;19751;40.274;18.268;2022-11-20T08:26:35;100264.56;;;18.62;100.00
33404;BME280;19751;40.274;18.268;2022-11-20T08:29:01;100271.09;;;18.61;100.00
33404;BME280;19751;40.274;18.268;2022-11-20T08:31:27;100258.81;;;18.58;100.00
33404;BME280;19751;40.274;18.268;2022-11-20T08:33:53;100260.47;;;18.59;100.00
33404;BME280;19751;40.274;18.268;2022-11-20T08:36:20;100262.09;;;18.60;100.00
33404;BME280;19751;40.274;18.268;2022-11-20T08:38:54;100267.88;;;18.64;100.00
33404;BME280;19751;40.274;18.268;2022-11-20T08:41:20;100277.19;;;18.68;100.00
33404;BME280;19751;40.274;18.268;2022-11-20T08:44:00;100276.72;;;18.71;100.00
33404;BME280;19751;40.274;18.268;2022-11-20T08:46:31;100288.19;;;18.73;100.00
33404;BME280;19751;40.274;18.268;2022-11-20T08:49:17;100288.78;;;18.75;100.00
33404;BME280;19751;40.274;18.268;2022-11-20T08:51:44;100286.38;;;18.79;100.00
33404;BME280;19751;40.274;18.268;2022-11-20T08:54:11;100285.03;;;18.81;100.00
33404;BME280;19751;40.274;18.268;2022-11-20T08:56:43;100288.91;;;18.85;100.00
33404;BME280;19751;40.274;18.268;2022-11-20T08:59:08;100282.94;;;18.88;100.00
33404;BME280;19751;40.274;18.268;2022-11-20T09:01:34;100278.88;;;18.91;100.00
33404;BME280;19751;40.274;18.268;2022-11-20T09:04:00;100280.84;;;18.96;100.00
33404;BME280;19751;40.274;18.268;2022-11-20T09:06:26;100275.94;;;18.98;100.00
33404;BME280;19751;40.274;18.268;2022-11-20T09:08:54;100274.34;;;19.02;100.00
33404;BME280;19751;40.274;18.268;2022-11-20T09:11:20;100269.19;;;19.05;100.00
33404;BME280;19751;40.274;18.268;2022-11-20T09:13:46;100259.69;;;19.08;100.00
33404;BME280;19751;40.274;18.268;2022-11-20T09:16:14;100249.31;;;19.10;100.00
33404;BME280;19751;40.274;18.268;2022-11-20T09:18:40;100245.00;;;19.14;100.00
33404;BME280;19751;40.274;18.268;2022-11-20T09:21:10;100245.56;;;19.16;100.00
33404;BME280;19751;40.274;18.268;2022-11-20T09:23:37;100237.38;;;19.16;100.00
33404;BME280;19751;40.274;18.268;2022-11-20T09:26:10;100240.34;;;19.15;100.00
33404;BME280;19751;40.274;18.268;2022-11-20T09:28:38;100236.81;;;19.14;100.00
33404;BME280;19751;40.274;18.268;2022-11-20T09:31:06;100233.25;;;19.13;100.00
33404;BME280;19751;40.274;18.268;2022-11-20T09:33:31;100237.91;;;19.13;100.00
33404;BME280;19751;40.274;18.268;2022-11-20T09:35:57;100232.44;;;19.13;100.00
33404;BME280;19751;40.274;18.268;2022-11-20T09:38:23;100216.06;;;19.13;100.00
33404;BME280;19751;40.274;18.268;2022-11-20T09:46:53;100217.50;;;19.21;100.00
33404;BME280;19751;40.274;18.268;2022-11-20T09:52:00;100196.25;;;19.28;100.00
33404;BME280;19751;40.274;18.268;2022-11-20T09:54:30;100196.53;;;19.31;100.00
33404;BME280;19751;40.274;18.268;2022-11-20T09:57:03;100197.13;;;19.33;100.00
33404;BME280;19751;40.274;18.268;2022-11-20T09:59:42;100194.94;;;19.35;100.00
33404;BME280;19751;40.274;18.268;2022-11-20T10:07:41;100195.84;;;19.46;100.00
33404;BME280;19751;40.274;18.268;2022-11-20T10:24:44;100173.13;;;19.41;100.00
33404;BME280;19751;40.274;18.268;2022-11-20T10:30:02;100176.44;;;19.43;100.00
33404;BME280;19751;40.274;18.268;2022-11-20T10:32:35;100183.28;;;19.45;100.00
33404;BME280;19751;40.274;18.268;2022-11-20T10:35:18;100176.47;;;19.48;100.00
33404;BME280;19751;40.274;18.268;2022-11-20T10:37:49;100176.47;;;19.48;100.00
33404;BME280;19751;40.274;18.268;2022-11-20T10:40:28;100172.09;;;19.47;100.00
33404;BME280;19751;40.274;18.268;2022-11-20T10:42:59;100175.13;;;19.50;100.00
33404;BME280;19751;40.274;18.268;2022-11-20T10:48:19;100191.28;;;19.57;100.00
33404;BME280;19751;40.274;18.268;2022-11-20T10:51:21;100191.84;;;19.59;100.00
33404;BME280;19751;40.274;18.268;2022-11-20T10:54:03;100192.66;;;19.59;99.06
33404;BME280;19751;40.274;18.268;2022-11-20T10:56:51;100178.19;;;19.59;97.22
33404;BME280;19751;40.274;18.268;2022-11-20T10:59:32;100185.28;;;19.60;97.11
33404;BME280;19751;40.274;18.268;2022-11-20T11:02:24;100183.72;;;19.64;96.83
33404;BME280;19751;40.274;18.268;2022-11-20T11:04:52;100172.28;;;19.67;96.04
33404;BME280;19751;40.274;18.268;2022-11-20T11:07:24;100173.94;;;19.73;96.53
33404;BME280;19751;40.274;18.268;2022-11-20T11:09:53;100166.84;;;19.77;96.54
33404;BME280;19751;40.274;18.268;2022-11-20T11:12:22;100169.66;;;19.82;96.17
33404;BME280;19751;40.274;18.268;2022-11-20T11:14:54;100174.03;;;19.89;95.48
33404;BME280;19751;40.274;18.268;2022-11-20T11:22:57;100173.56;;;20.02;94.51
33404;BME280;19751;40.274;18.268;2022-11-20T11:25:30;100170.56;;;20.03;94.40
33404;BME280;19751;40.274;18.268;2022-11-20T11:28:18;100156.63;;;20.00;94.83
33404;BME280;19751;40.274;18.268;2022-11-20T11:30:46;100167.47;;;19.90;94.91
33404;BME280;19751;40.274;18.268;2022-11-20T11:33:27;100161.97;;;19.79;95.59
33404;BME280;19751;40.274;18.268;2022-11-20T11:35:55;100159.16;;;19.69;94.91
33404;BME280;19751;40.274;18.268;2022-11-20T11:38:38;100141.03;;;19.58;93.85
33404;BME280;19751;40.274;18.268;2022-11-20T11:41:06;100130.56;;;19.45;91.16
33404;BME280;19751;40.274;18.268;2022-11-20T11:43:35;100136.22;;;19.33;90.92
33404;BME280;19751;40.274;18.268;2022-11-20T11:52:03;100089.91;;;19.11;93.16
33404;BME280;19751;40.274;18.268;2022-11-20T12:00:10;100050.19;;;18.88;95.14
33404;BME280;19751;40.274;18.268;2022-11-20T12:08:03;99966.94;;;18.53;100.00
33404;BME280;19751;40.274;18.268;2022-11-20T12:13:31;99922.03;;;18.29;100.00
33404;BME280;19751;40.274;18.268;2022-11-20T12:16:02;99985.13;;;18.16;100.00
33404;BME280;19751;40.274;18.268;2022-11-20T12:18:31;99981.44;;;18.00;100.00
33404;BME280;19751;40.274;18.268;2022-11-20T12:21:18;99950.22;;;17.85;100.00
33404;BME280;19751;40.274;18.268;2022-11-20T12:37:59;100006.53;;;16.97;100.00
33404;BME280;19751;40.274;18.268;2022-11-20T12:43:29;100018.59;;;16.84;100.00
33404;BME280;19751;40.274;18.268;2022-11-20T12:46:42;100061.84;;;16.86;100.00
33404;BME280;19751;40.274;18.268;2022-11-20T12:49:22;100061.59;;;16.87;100.00
33404;BME280;19751;40.274;18.268;2022-11-20T13:00:14;100055.28;;;16.70;100.00
33404;BME280;19751;40.274;18.268;2022-11-20T13:08:02;100015.50;;;16.64;100.00
33404;BME280;19751;40.274;18.268;2022-11-20T13:13:35;99985.41;;;16.71;100.00
33404;BME280;19751;40.274;18.268;2022-11-20T13:16:16;99982.81;;;16.76;100.00
33404;BME280;19751;40.274;18.268;2022-11-20T13:18:45;99970.38;;;16.80;100.00
33404;BME280;19751;40.274;18.268;2022-11-20T13:23:41;99964.41;;;16.83;100.00
33404;BME280;19751;40.274;18.268;2022-11-20T13:28:40;99925.59;;;16.87;100.00
33404;BME280;19751;40.274;18.268;2022-11-20T13:31:34;99910.34;;;16.86;100.00
33404;BME280;19751;40.274;18.268;2022-11-20T13:34:03;99913.06;;;16.86;100.00
33404;BME280;19751;40.274;18.268;2022-11-20T13:36:30;99901.97;;;16.88;100.00
33404;BME280;19751;40.274;18.268;2022-11-20T13:38:57;99949.25;;;16.87;100.00
33404;BME280;19751;40.274;18.268;2022-11-20T13:46:48;99907.94;;;16.90;100.00
33404;BME280;19751;40.274;18.268;2022-11-20T13:52:02;99946.09;;;16.95;100.00
33404;BME280;19751;40.274;18.268;2022-11-20T14:00:23;99909.03;;;16.89;100.00
33404;BME280;19751;40.274;18.268;2022-11-20T14:03:18;99996.81;;;16.84;100.00
33404;BME280;19751;40.274;18.268;2022-11-20T14:06:03;99932.31;;;16.80;100.00
33404;BME280;19751;40.274;18.268;2022-11-20T14:08:47;99905.34;;;16.78;100.00
33404;BME280;19751;40.274;18.268;2022-11-20T14:11:27;99925.13;;;16.74;100.00
33404;BME280;19751;40.274;18.268;2022-11-20T14:14:18;99960.72;;;16.72;100.00
33404;BME280;19751;40.274;18.268;2022-11-20T14:16:44;99933.50;;;16.72;100.00
33404;BME280;19751;40.274;18.268;2022-11-20T14:19:25;99916.06;;;16.68;100.00
33404;BME280;19751;40.274;18.268;2022-11-20T14:24:36;99868.09;;;16.62;100.00
33404;BME280;19751;40.274;18.268;2022-11-20T14:27:02;99846.41;;;16.67;100.00
33404;BME280;19751;40.274;18.268;2022-11-20T14:29:37;99870.97;;;16.72;100.00
33404;BME280;19751;40.274;18.268;2022-11-20T14:32:04;99882.44;;;16.74;100.00
33404;BME280;19751;40.274;18.268;2022-11-20T14:34:32;99892.00;;;16.77;100.00
33404;BME280;19751;40.274;18.268;2022-11-20T14:37:04;99898.16;;;16.72;100.00
33404;BME280;19751;40.274;18.268;2022-11-20T14:39:33;99914.00;;;16.75;100.00
33404;BME280;19751;40.274;18.268;2022-11-20T14:41:59;99913.16;;;16.75;100.00
33404;BME280;19751;40.274;18.268;2022-11-20T14:44:33;99911.53;;;16.74;100.00
33404;BME280;19751;40.274;18.268;2022-11-20T14:47:00;99903.28;;;16.69;100.00